LGSK Airport Information

Runway Information
Runway 02 Length 5341 ft width 98 ft
Elevation 9 ft Threshold 190 ft Heading 19
Runway 20 Length 5341 ft Width 98 ft
Elevation 54 ft Threshold 0 ft Heading 199
Airport Frequencies
Type A/G Name SKIATHOS R Frequency 563.7 MHZ
Type APP Name SKIATHOS A Frequency 126.05 MHZ
Type TWR Name SKIATHOS T Frequency 126.05 MHZ
Airport Navaids
Type NDB Name Skiathos Frequency 326 KHZ
Airport Weather Information & NOTAM
ADDS - METARS form results

(0802 UTC 03 December 2021)
Data provider http://aviationweather.gov/metar/data/
 
Forecast for: LGSK (SKIATHOS ISLAND , GR)
Text: TAF LGSK 030500Z 0306/0315 20015KT 9999 FEW020 SCT060
Forecast period: 0600 to 1500 UTC 03 December 2021
Forecast type: FROM: standard forecast or significant change
Winds: from the SSW (200 degrees) at 17 MPH (15 knots; 7.7 m/s)
Visibility: 6 or more miles (10+ km)
Ceiling: at least 12,000 feet AGL
Clouds: few clouds at 2000 feet AGL
scattered clouds at 6000 feet AGL
Weather: no significant weather forecast for this period
Text: TEMPO 0306/0309 19015G25KT
Forecast period: 0600 to 0900 UTC 03 December 2021
Forecast type: TEMPORARY: The following changes expected for less than half the time period
Winds: from the S (190 degrees) at 17 MPH (15 knots; 7.7 m/s)
gusting to 29 MPH (25 knots; 12.9 m/s)
Visibility: missing
Ceiling: unknown
Clouds: missing
Weather: no significant weather forecast for this period